Time;durP1;ratioP1;P1;durP2;ratioP2;P2;SDS_P1;SDS_P2;PMS_P1;PMS_P2;Temp;Humidity;BMP_temperature;BMP_pressure;BME280_temperature;BME280_humidity;BME280_pressure;Samples;Min_cycle;Max_cycle;Signal;HPM_P1;HPM_P2
2021/04/09 00:00:30;;;;;;;;;;;;;;;21.18;31.58;101318.72;2197910;39;114690;-57
2021/04/09 00:02:02;;;;;;;;;;;;;;;21.18;31.86;101318.72;2201124;39;115491;-57
2021/04/09 00:03:33;;;;;;;;;;;;;;;21.17;31.47;101325.47;2200415;39;115691;-57
2021/04/09 00:05:07;;;;;;;;;;;;;;;21.16;31.88;101323.81;2199918;39;116440;-57
2021/04/09 00:06:38;;;;;;;;;;;;;;;21.15;31.96;101312.88;2194968;39;115358;-58
2021/04/09 00:08:09;;;;;;;;;;;;;;;21.15;31.66;101312.88;2200671;39;115575;-58
2021/04/09 00:09:40;;;;;;;;;;;;;;;21.13;31.71;101320.75;2206634;39;115608;-56
2021/04/09 00:11:12;;;;;;;;;;;;;;;21.12;32.07;101317.06;2202323;39;115436;-58
2021/04/09 00:12:43;;;;;;;;;;;;;;;21.11;32.23;101318.22;2199229;39;115836;-57
2021/04/09 00:14:15;;;;;;;;;;;;;;;21.11;32.41;101320.19;2204033;39;114531;-57
2021/04/09 00:15:46;;;;;;;;;;;;;;;21.11;32.11;101320.19;2205469;39;114592;-58
2021/04/09 00:17:17;;;;;;;;;;;;;;;21.10;32.31;101307.28;2200923;39;113837;-57
2021/04/09 00:18:49;;;;;;;;;;;;;;;21.09;31.85;101302.78;2200097;39;113903;-56
2021/04/09 00:20:21;;;;;;;;;;;;;;;21.06;32.34;101301.44;2205463;39;114092;-57
2021/04/09 00:21:52;;;;;;;;;;;;;;;21.06;32.29;101301.44;2200785;39;113897;-57
2021/04/09 00:23:23;;;;;;;;;;;;;;;21.04;32.36;101294.44;2201369;39;114227;-57
2021/04/09 00:24:55;;;;;;;;;;;;;;;21.04;32.05;101292.47;2204711;39;114468;-58
2021/04/09 00:26:27;;;;;;;;;;;;;;;21.03;31.98;101292.78;2207037;39;114252;-57
2021/04/09 00:27:58;;;;;;;;;;;;;;;21.02;32.34;101288.31;2199270;39;114587;-57
2021/04/09 00:29:29;;;;;;;;;;;;;;;21.00;32.32;101288.59;2203418;39;113780;-58
2021/04/09 00:31:01;;;;;;;;;;;;;;;20.99;32.14;101297.31;2202956;39;113855;-58
2021/04/09 00:32:32;;;;;;;;;;;;;;;20.98;32.23;101281.63;2198223;39;113837;-57
2021/04/09 00:34:04;;;;;;;;;;;;;;;20.97;32.45;101296.81;2201292;39;113942;-56
2021/04/09 00:35:35;;;;;;;;;;;;;;;20.95;32.39;101290.63;2204749;39;113645;-58
2021/04/09 00:37:06;;;;;;;;;;;;;;;20.93;32.86;101285.34;2205149;39;116049;-57
2021/04/09 00:38:37;;;;;;;;;;;;;;;20.95;32.38;101288.66;2201599;39;114933;-58
2021/04/09 00:40:09;;;;;;;;;;;;;;;20.91;32.32;101278.34;2197580;39;114223;-57
2021/04/09 00:41:40;;;;;;;;;;;;;;;20.89;32.50;101286.25;2205222;39;114783;-56
2021/04/09 00:43:11;;;;;;;;;;;;;;;20.87;32.42;101283.75;2197201;39;114709;-56
2021/04/09 00:44:42;;;;;;;;;;;;;;;20.88;32.80;101287.38;2199586;39;114841;-58
2021/04/09 00:46:13;;;;;;;;;;;;;;;20.83;32.87;101283.50;2207307;39;115045;-58
2021/04/09 00:47:44;;;;;;;;;;;;;;;20.80;32.78;101284.09;2205341;39;114118;-56
2021/04/09 00:49:15;;;;;;;;;;;;;;;20.81;32.95;101271.72;2199667;39;115393;-58
2021/04/09 00:50:46;;;;;;;;;;;;;;;20.78;32.55;101271.50;2205863;39;114794;-58
2021/04/09 00:52:18;;;;;;;;;;;;;;;20.77;33.04;101272.63;2198385;39;114983;-58
2021/04/09 00:53:49;;;;;;;;;;;;;;;20.76;32.90;101274.59;2204895;39;114783;-57
2021/04/09 00:55:21;;;;;;;;;;;;;;;20.74;32.91;101276.91;2204757;39;114832;-57
2021/04/09 00:56:52;;;;;;;;;;;;;;;20.73;32.92;101272.41;2206008;39;114727;-57
2021/04/09 00:58:23;;;;;;;;;;;;;;;20.73;32.75;101266.81;2200569;39;115641;-57
2021/04/09 00:59:55;;;;;;;;;;;;;;;20.72;33.23;101264.28;2205125;39;115975;-57
2021/04/09 01:01:26;;;;;;;;;;;;;;;20.71;32.70;101263.47;2205763;39;115487;-57
2021/04/09 01:02:58;;;;;;;;;;;;;;;20.73;32.56;101271.56;2201731;39;115568;-59
2021/04/09 01:04:29;;;;;;;;;;;;;;;20.71;32.76;101262.63;2202892;39;115502;-58
2021/04/09 01:06:01;;;;;;;;;;;;;;;20.68;33.12;101264.06;2199991;39;116284;-58
2021/04/09 01:07:32;;;;;;;;;;;;;;;20.66;33.09;101257.94;2199173;39;115691;-59
2021/04/09 01:09:04;;;;;;;;;;;;;;;20.65;33.05;101259.06;2200300;39;116376;-57
2021/04/09 01:10:35;;;;;;;;;;;;;;;20.65;33.06;101258.22;2197960;39;115471;-55
2021/04/09 01:12:07;;;;;;;;;;;;;;;20.64;32.60;101263.00;2202095;39;115570;-57
2021/04/09 01:13:38;;;;;;;;;;;;;;;20.62;33.16;101273.72;2195894;39;115558;-57
2021/04/09 01:15:10;;;;;;;;;;;;;;;20.60;32.87;101261.94;2196064;39;115956;-57
2021/04/09 01:16:45;;;;;;;;;;;;;;;20.59;32.73;101268.69;2197439;39;115542;-58
2021/04/09 01:18:26;;;;;;;;;;;;;;;20.58;33.24;101261.38;2203353;39;115371;-56
2021/04/09 01:20:06;;;;;;;;;;;;;;;20.58;33.32;101254.97;2201880;39;113593;-57
2021/04/09 01:21:37;;;;;;;;;;;;;;;20.57;32.95;101251.31;2193320;39;114819;-57
2021/04/09 01:23:18;;;;;;;;;;;;;;;20.54;33.13;101257.50;2194209;39;114047;-58
2021/04/09 01:24:58;;;;;;;;;;;;;;;20.53;32.90;101253.06;2198424;39;114268;-57
2021/04/09 01:26:38;;;;;;;;;;;;;;;20.52;33.16;101239.31;2199097;39;113915;-58
2021/04/09 01:28:12;;;;;;;;;;;;;;;20.49;33.14;101251.97;2193588;39;113960;-57
2021/04/09 01:29:43;;;;;;;;;;;;;;;20.48;33.05;101247.50;2198378;39;114032;-58
2021/04/09 01:31:15;;;;;;;;;;;;;;;20.47;33.02;101240.22;2202904;39;113883;-58
2021/04/09 01:32:48;;;;;;;;;;;;;;;20.47;33.04;101240.22;2195936;39;113829;-57
2021/04/09 01:34:20;;;;;;;;;;;;;;;20.45;33.31;101242.47;2197112;39;113815;-57
2021/04/09 01:35:54;;;;;;;;;;;;;;;20.42;33.37;101243.94;2202379;39;114320;-56
2021/04/09 01:37:26;;;;;;;;;;;;;;;20.41;33.14;101247.03;2195848;39;114027;-57
2021/04/09 01:39:05;;;;;;;;;;;;;;;20.41;33.14;101245.06;2197211;39;113881;-57
2021/04/09 01:40:38;;;;;;;;;;;;;;;20.42;33.51;101248.69;2194837;39;114321;-58
2021/04/09 01:42:11;;;;;;;;;;;;;;;20.42;33.67;101248.69;2200241;39;113600;-58
2021/04/09 01:43:43;;;;;;;;;;;;;;;20.41;33.43;101244.22;2198080;39;115173;-57
2021/04/09 01:45:15;;;;;;;;;;;;;;;20.40;33.51;101249.00;2197319;39;114882;-57
2021/04/09 01:46:47;;;;;;;;;;;;;;;20.38;33.41;101242.03;2190462;39;114781;-57
2021/04/09 01:48:20;;;;;;;;;;;;;;;20.38;33.63;101237.25;2194778;39;115067;-58
2021/04/09 01:49:55;;;;;;;;;;;;;;;20.36;33.63;101233.06;2199923;39;114510;-59
2021/04/09 01:51:26;;;;;;;;;;;;;;;20.39;33.78;101238.09;2199748;39;114961;-56
2021/04/09 01:52:59;;;;;;;;;;;;;;;20.33;33.70;101230.84;2197346;39;113875;-57
2021/04/09 01:54:32;;;;;;;;;;;;;;;20.32;33.74;101234.78;2197483;39;114923;-57
2021/04/09 01:56:04;;;;;;;;;;;;;;;20.27;33.81;101232.84;2196196;39;115053;-58
2021/04/09 01:57:37;;;;;;;;;;;;;;;20.29;33.67;101227.78;2201403;39;115109;-56
2021/04/09 01:59:09;;;;;;;;;;;;;;;20.30;33.67;101223.06;2196680;39;114816;-58
2021/04/09 02:00:40;;;;;;;;;;;;;;;20.26;33.93;101217.16;2197400;39;114832;-58
2021/04/09 02:02:14;;;;;;;;;;;;;;;20.27;33.88;101217.97;2194344;39;115331;-57
2021/04/09 02:03:46;;;;;;;;;;;;;;;20.26;33.50;101219.16;2192557;39;114955;-58
2021/04/09 02:05:19;;;;;;;;;;;;;;;20.25;33.77;101215.50;2192216;39;115475;-58
2021/04/09 02:06:51;;;;;;;;;;;;;;;20.24;33.75;101212.97;2200458;39;115618;-59
2021/04/09 02:08:22;;;;;;;;;;;;;;;20.24;33.98;101218.59;2204566;39;116013;-58
2021/04/09 02:09:54;;;;;;;;;;;;;;;20.23;33.67;101222.53;2201914;39;115638;-58
2021/04/09 02:11:25;;;;;;;;;;;;;;;20.23;33.84;101214.13;2197093;39;115404;-58
2021/04/09 02:12:56;;;;;;;;;;;;;;;20.23;34.07;101216.91;2196995;39;117643;-57
2021/04/09 02:14:28;;;;;;;;;;;;;;;20.25;33.95;101214.66;2202643;39;115698;-57
2021/04/09 02:16:00;;;;;;;;;;;;;;;20.22;33.71;101213.28;2196795;39;115533;-57
2021/04/09 02:17:31;;;;;;;;;;;;;;;20.20;34.07;101209.94;2197767;39;116139;-57
2021/04/09 02:19:04;;;;;;;;;;;;;;;20.19;33.84;101216.69;2197428;39;115618;-57
2021/04/09 02:20:35;;;;;;;;;;;;;;;20.19;34.11;101213.88;2197350;39;115547;-57
2021/04/09 02:22:07;;;;;;;;;;;;;;;20.19;34.26;101215.84;2197869;39;115978;-57
2021/04/09 02:23:38;;;;;;;;;;;;;;;20.17;33.80;101223.75;2197779;39;115334;-57
2021/04/09 02:25:09;;;;;;;;;;;;;;;20.18;34.18;101220.63;2199551;39;115638;-58
2021/04/09 02:26:41;;;;;;;;;;;;;;;20.18;34.12;101222.59;2195857;39;113855;-57
2021/04/09 02:28:12;;;;;;;;;;;;;;;20.14;34.05;101218.72;2197980;39;114071;-59
2021/04/09 02:29:43;;;;;;;;;;;;;;;20.14;33.97;101218.72;2198106;39;114378;-57
2021/04/09 02:31:15;;;;;;;;;;;;;;;20.12;33.77;101213.41;2199151;39;113699;-57
2021/04/09 02:32:46;;;;;;;;;;;;;;;20.12;34.08;101212.59;2197523;39;113837;-57
2021/04/09 02:34:17;;;;;;;;;;;;;;;20.12;33.90;101213.41;2197075;39;114133;-59
2021/04/09 02:35:48;;;;;;;;;;;;;;;20.11;33.80;101208.94;2197855;39;114518;-58
2021/04/09 02:37:21;;;;;;;;;;;;;;;20.07;33.92;101207.03;2200671;39;113728;-59
2021/04/09 02:38:55;;;;;;;;;;;;;;;20.06;34.20;101203.38;2198759;39;114729;-56
2021/04/09 02:40:30;;;;;;;;;;;;;;;20.07;33.86;101204.22;2198387;39;114670;-56
2021/04/09 02:42:04;;;;;;;;;;;;;;;20.05;34.26;101198.06;2197876;39;113825;-58
2021/04/09 02:43:35;;;;;;;;;;;;;;;20.07;34.13;101198.63;2198072;39;114222;-57
2021/04/09 02:45:07;;;;;;;;;;;;;;;20.05;34.24;101195.25;2199538;39;116797;-57
2021/04/09 02:46:47;;;;;;;;;;;;;;;20.04;33.95;101200.03;2201140;39;117476;-56
2021/04/09 02:48:19;;;;;;;;;;;;;;;20.06;34.20;101188.53;2197148;39;115168;-57
2021/04/09 02:49:58;;;;;;;;;;;;;;;20.02;34.13;101193.06;2195386;39;114817;-58
2021/04/09 02:51:31;;;;;;;;;;;;;;;19.97;34.35;101186.38;2196108;39;114811;-57
2021/04/09 02:53:04;;;;;;;;;;;;;;;19.99;34.31;101186.06;2195479;39;114975;-57
2021/04/09 02:54:35;;;;;;;;;;;;;;;19.98;34.16;101190.03;2195938;39;115000;-57
2021/04/09 02:56:08;;;;;;;;;;;;;;;19.99;34.04;101191.69;2198342;39;114538;-58
2021/04/09 02:57:39;;;;;;;;;;;;;;;19.97;34.18;101191.16;2193032;39;115084;-57
2021/04/09 02:59:12;;;;;;;;;;;;;;;19.97;34.15;101191.16;2198103;39;115434;-56
2021/04/09 03:00:45;;;;;;;;;;;;;;;19.97;34.07;101182.75;2198009;39;114684;-58
2021/04/09 03:02:16;;;;;;;;;;;;;;;19.95;34.27;101183.03;2195677;39;114856;-57
2021/04/09 03:03:47;;;;;;;;;;;;;;;19.92;34.46;101186.44;2198184;39;115159;-57
2021/04/09 03:05:19;;;;;;;;;;;;;;;19.92;34.39;101189.25;2201542;39;115275;-58
2021/04/09 03:06:51;;;;;;;;;;;;;;;19.90;34.51;101188.69;2202407;39;115163;-57
2021/04/09 03:08:22;;;;;;;;;;;;;;;19.91;34.51;101186.72;2206959;39;115109;-58
2021/04/09 03:09:53;;;;;;;;;;;;;;;19.90;34.08;101188.69;2203117;39;115660;-56
2021/04/09 03:11:26;;;;;;;;;;;;;;;19.91;34.33;101184.75;2199919;39;115870;-58
2021/04/09 03:12:57;;;;;;;;;;;;;;;19.91;34.45;101187.56;2188210;39;115823;-57
2021/04/09 03:14:28;;;;;;;;;;;;;;;19.88;34.63;101185.38;2200090;39;115387;-57
2021/04/09 03:16:01;;;;;;;;;;;;;;;19.87;34.48;101180.88;2201764;39;115686;-58
2021/04/09 03:17:36;;;;;;;;;;;;;;;19.89;34.53;101173.03;2202366;39;115647;-58
2021/04/09 03:19:07;;;;;;;;;;;;;;;19.85;34.63;101176.72;2204715;39;115547;-58
2021/04/09 03:20:38;;;;;;;;;;;;;;;19.85;34.76;101183.16;2196315;39;115567;-57
2021/04/09 03:22:10;;;;;;;;;;;;;;;19.85;34.72;101179.53;2196741;39;116459;-57
2021/04/09 03:23:42;;;;;;;;;;;;;;;19.82;34.70;101180.09;2200657;39;115645;-57
2021/04/09 03:25:13;;;;;;;;;;;;;;;19.81;34.79;101179.28;2204674;39;115749;-57
2021/04/09 03:26:44;;;;;;;;;;;;;;;19.79;34.63;101181.56;2205494;39;114575;-58
2021/04/09 03:28:15;;;;;;;;;;;;;;;19.79;34.84;101181.56;2192733;39;115696;-57
2021/04/09 03:29:47;;;;;;;;;;;;;;;19.78;34.90;101176.22;2203436;39;115628;-58
2021/04/09 03:31:18;;;;;;;;;;;;;;;19.77;34.68;101186.63;2203718;39;115500;-57
2021/04/09 03:32:49;;;;;;;;;;;;;;;19.79;34.61;101175.94;2200133;39;113791;-57
2021/04/09 03:34:20;;;;;;;;;;;;;;;19.78;34.64;101177.06;2194881;39;113846;-57
2021/04/09 03:35:51;;;;;;;;;;;;;;;19.79;34.76;101177.91;2199477;39;114232;-58
2021/04/09 03:37:22;;;;;;;;;;;;;;;19.75;34.71;101177.69;2191469;39;113726;-57
2021/04/09 03:38:53;;;;;;;;;;;;;;;19.73;35.12;101176.28;2202065;39;114440;-57
2021/04/09 03:40:24;;;;;;;;;;;;;;;19.72;35.02;101181.06;2204590;39;113718;-57
2021/04/09 03:41:55;;;;;;;;;;;;;;;19.73;35.01;101179.09;2197654;39;114037;-58
2021/04/09 03:43:27;;;;;;;;;;;;;;;19.72;34.92;101172.66;2201212;39;116333;-58
2021/04/09 03:44:58;;;;;;;;;;;;;;;19.72;35.05;101178.25;2204400;39;113955;-57
2021/04/09 03:46:30;;;;;;;;;;;;;;;19.72;35.06;101172.66;2203823;39;113637;-57
2021/04/09 03:48:01;;;;;;;;;;;;;;;19.73;35.19;101179.09;2206245;39;113740;-60
2021/04/09 03:49:32;;;;;;;;;;;;;;;19.73;35.16;101174.31;2203777;39;113800;-57
2021/04/09 03:51:04;;;;;;;;;;;;;;;19.69;35.32;101176.06;2207591;39;113914;-57
2021/04/09 03:52:36;;;;;;;;;;;;;;;19.69;35.04;101173.25;2206930;39;113830;-57
2021/04/09 03:54:07;;;;;;;;;;;;;;;19.68;35.31;101165.97;2204385;39;115005;-57
2021/04/09 03:55:38;;;;;;;;;;;;;;;19.65;35.26;101162.94;2199486;39;115019;-57
2021/04/09 03:57:09;;;;;;;;;;;;;;;19.66;35.19;101164.59;2198622;39;114733;-57
2021/04/09 03:58:41;;;;;;;;;;;;;;;19.63;35.17;101170.78;2200920;39;114477;-57
2021/04/09 04:00:12;;;;;;;;;;;;;;;19.64;35.11;101164.91;2207264;39;114850;-57
2021/04/09 04:01:43;;;;;;;;;;;;;;;19.62;35.20;101169.13;2207352;39;114769;-57
2021/04/09 04:03:14;;;;;;;;;;;;;;;19.61;35.25;101159.06;2204276;39;115012;-57
2021/04/09 04:04:45;;;;;;;;;;;;;;;19.59;35.28;101159.34;2204422;39;114874;-57
2021/04/09 04:06:17;;;;;;;;;;;;;;;19.61;35.38;101151.50;2196749;39;114891;-57
2021/04/09 04:07:48;;;;;;;;;;;;;;;19.60;35.52;101160.19;2202033;39;114514;-57
2021/04/09 04:09:20;;;;;;;;;;;;;;;19.60;35.50;101154.56;2192126;39;115158;-57
2021/04/09 04:10:52;;;;;;;;;;;;;;;19.61;35.45;101161.84;2195104;39;114735;-57
2021/04/09 04:12:23;;;;;;;;;;;;;;;19.61;35.57;101165.50;2205685;39;115515;-57
2021/04/09 04:13:54;;;;;;;;;;;;;;;19.63;35.69;101170.78;2201936;39;114926;-57
2021/04/09 04:15:25;;;;;;;;;;;;;;;19.68;35.97;101170.75;2203397;39;115561;-57
2021/04/09 04:16:56;;;;;;;;;;;;;;;19.71;36.05;101173.81;2203438;39;115593;-57
2021/04/09 04:18:27;;;;;;;;;;;;;;;19.75;36.25;101171.22;2197225;39;115771;-57
2021/04/09 04:19:59;;;;;;;;;;;;;;;19.76;36.04;101176.53;2201915;39;115098;-57
2021/04/09 04:21:30;;;;;;;;;;;;;;;19.77;36.15;101164.19;2196537;39;116476;-57
2021/04/09 04:23:02;;;;;;;;;;;;;;;19.80;36.36;101174.81;2202388;39;115849;-57
2021/04/09 04:24:33;;;;;;;;;;;;;;;19.83;36.33;101171.41;2205214;39;115594;-58
2021/04/09 04:26:05;;;;;;;;;;;;;;;19.86;36.27;101167.16;2203998;39;115906;-57
2021/04/09 04:27:37;;;;;;;;;;;;;;;19.89;36.37;101172.19;2196901;39;115897;-56
2021/04/09 04:29:08;;;;;;;;;;;;;;;19.92;36.50;101169.63;2202715;39;115960;-57
2021/04/09 04:30:39;;;;;;;;;;;;;;;19.96;36.80;101162.28;2203851;39;115987;-56
2021/04/09 04:32:10;;;;;;;;;;;;;;;20.01;36.93;101166.97;2204506;39;115491;-57
2021/04/09 04:33:41;;;;;;;;;;;;;;;20.06;37.07;101161.31;2202566;39;115436;-58
2021/04/09 04:35:13;;;;;;;;;;;;;;;20.10;37.75;101164.34;2207866;39;115774;-58
2021/04/09 04:36:44;;;;;;;;;;;;;;;20.15;37.45;101167.94;2201961;39;114007;-58
2021/04/09 04:38:15;;;;;;;;;;;;;;;20.18;37.24;101164.50;2200878;39;114038;-58
2021/04/09 04:39:47;;;;;;;;;;;;;;;20.23;37.19;101169.22;2197732;39;114001;-57
2021/04/09 04:41:18;;;;;;;;;;;;;;;20.27;36.73;101157.09;2195267;39;114095;-57
2021/04/09 04:42:49;;;;;;;;;;;;;;;20.34;36.70;101162.38;2197451;39;113812;-57
2021/04/09 04:44:20;;;;;;;;;;;;;;;20.39;36.78;101165.13;2203924;39;114047;-58
2021/04/09 04:45:52;;;;;;;;;;;;;;;20.45;36.73;101163.88;2207612;39;114092;-57
2021/04/09 04:47:23;;;;;;;;;;;;;;;20.49;36.65;101159.34;2201696;39;114101;-57
2021/04/09 04:48:54;;;;;;;;;;;;;;;20.53;36.70;101157.63;2198030;39;113912;-58
2021/04/09 04:50:25;;;;;;;;;;;;;;;20.58;36.75;101157.50;2200040;39;114356;-57
2021/04/09 04:51:56;;;;;;;;;;;;;;;20.61;36.66;101156.94;2197306;39;113964;-58
2021/04/09 04:53:27;;;;;;;;;;;;;;;20.66;36.51;101154.03;2201839;39;113901;-57
2021/04/09 04:54:58;;;;;;;;;;;;;;;20.72;36.49;101151.97;2203442;39;114959;-57
2021/04/09 04:56:29;;;;;;;;;;;;;;;20.75;36.23;101152.22;2204426;39;113794;-63
2021/04/09 04:58:01;;;;;;;;;;;;;;;20.79;36.16;101146.81;2200051;39;113893;-57
2021/04/09 04:59:32;;;;;;;;;;;;;;;20.83;36.13;101142.25;2201428;39;114636;-58
2021/04/09 05:01:03;;;;;;;;;;;;;;;20.85;35.79;101140.78;2203556;39;114874;-57
2021/04/09 05:02:34;;;;;;;;;;;;;;;20.89;35.67;101141.03;2196493;39;114953;-57
2021/04/09 05:04:05;;;;;;;;;;;;;;;20.95;35.70;101147.38;2201942;39;114803;-57
2021/04/09 05:05:36;;;;;;;;;;;;;;;20.99;35.36;101145.63;2204110;39;114859;-59
2021/04/09 05:07:08;;;;;;;;;;;;;;;21.02;35.73;101148.69;2203629;39;114972;-57
2021/04/09 05:08:39;;;;;;;;;;;;;;;21.07;35.51;101145.78;2204491;39;114975;-58
2021/04/09 05:10:10;;;;;;;;;;;;;;;21.11;35.00;101144.03;2204699;39;114149;-57
2021/04/09 05:11:41;;;;;;;;;;;;;;;21.14;35.30;101145.41;2197305;39;114798;-57
2021/04/09 05:13:12;;;;;;;;;;;;;;;21.17;34.90;101133.53;2192596;39;114999;-57
2021/04/09 05:14:43;;;;;;;;;;;;;;;21.20;35.15;101147.00;2203186;39;115123;-57
2021/04/09 05:16:15;;;;;;;;;;;;;;;21.23;35.02;101135.97;2204532;39;114872;-57
2021/04/09 05:17:46;;;;;;;;;;;;;;;21.28;34.86;101149.09;2204749;39;114907;-58
2021/04/09 05:19:17;;;;;;;;;;;;;;;21.31;35.22;101137.22;2207345;39;114868;-57
2021/04/09 05:20:49;;;;;;;;;;;;;;;21.35;35.03;101138.25;2199325;39;115542;-57
2021/04/09 05:22:20;;;;;;;;;;;;;;;21.39;34.94;101142.16;2197013;39;115243;-58
2021/04/09 05:23:52;;;;;;;;;;;;;;;21.42;35.37;101137.88;2202369;39;116107;-57
2021/04/09 05:25:23;;;;;;;;;;;;;;;21.45;35.35;101137.25;2204851;39;115555;-58
2021/04/09 05:26:54;;;;;;;;;;;;;;;21.48;34.91;101131.03;2191998;39;116091;-57
2021/04/09 05:28:25;;;;;;;;;;;;;;;21.52;34.81;101130.09;2204612;39;115412;-57
2021/04/09 05:29:56;;;;;;;;;;;;;;;21.54;34.94;101129.75;2199398;39;115465;-58
2021/04/09 05:31:27;;;;;;;;;;;;;;;21.55;34.55;101126.66;2202329;39;115544;-58
2021/04/09 05:32:59;;;;;;;;;;;;;;;21.60;34.77;101122.91;2204478;39;115544;-57
2021/04/09 05:34:30;;;;;;;;;;;;;;;21.62;34.65;101127.06;2196852;39;116119;-57
2021/04/09 05:36:01;;;;;;;;;;;;;;;21.66;34.74;101124.47;2201378;39;115490;-57
2021/04/09 05:37:32;;;;;;;;;;;;;;;21.69;34.31;101133.13;2202952;39;115909;-57
2021/04/09 05:39:03;;;;;;;;;;;;;;;21.71;34.43;101128.00;2198324;39;115708;-56
2021/04/09 05:40:35;;;;;;;;;;;;;;;21.74;34.59;101130.22;2205075;39;115070;-57
2021/04/09 05:42:06;;;;;;;;;;;;;;;21.77;34.55;101128.72;2208011;39;114093;-57
2021/04/09 05:43:37;;;;;;;;;;;;;;;21.81;34.06;101128.94;2207798;39;113864;-57
2021/04/09 05:45:08;;;;;;;;;;;;;;;21.83;34.34;101135.09;2207419;39;113918;-56
2021/04/09 05:46:40;;;;;;;;;;;;;;;21.85;34.37;101133.63;2206952;39;113768;-57
2021/04/09 05:48:11;;;;;;;;;;;;;;;21.87;34.14;101127.69;2206210;39;114973;-56
2021/04/09 05:49:42;;;;;;;;;;;;;;;21.89;34.21;101133.84;2200620;39;113631;-57
2021/04/09 05:51:13;;;;;;;;;;;;;;;21.92;33.81;101141.66;2206073;39;113627;-57
2021/04/09 05:52:44;;;;;;;;;;;;;;;21.93;33.90;101135.75;2209464;39;113618;-57
2021/04/09 05:54:15;;;;;;;;;;;;;;;21.95;33.94;101130.63;2199505;39;114168;-56
2021/04/09 05:55:46;;;;;;;;;;;;;;;21.98;33.97;101135.66;2201783;39;113724;-57
2021/04/09 05:57:18;;;;;;;;;;;;;;;22.00;33.77;101127.72;2201989;39;113754;-57
2021/04/09 05:58:49;;;;;;;;;;;;;;;22.03;33.85;101129.09;2203592;39;113739;-56
2021/04/09 06:00:21;;;;;;;;;;;;;;;22.04;33.92;101128.75;2204520;39;113698;-56
2021/04/09 06:01:52;;;;;;;;;;;;;;;22.06;33.75;101131.25;2199094;39;114013;-56
2021/04/09 06:03:23;;;;;;;;;;;;;;;22.08;33.77;101123.31;2202474;39;113862;-56
2021/04/09 06:04:54;;;;;;;;;;;;;;;22.09;33.69;101131.47;2204987;39;115371;-56
2021/04/09 06:06:25;;;;;;;;;;;;;;;22.12;33.97;101139.25;2196915;39;114886;-57
2021/04/09 06:07:57;;;;;;;;;;;;;;;22.14;33.68;101133.31;2197669;39;114809;-56
2021/04/09 06:09:28;;;;;;;;;;;;;;;22.17;33.88;101132.69;2196056;39;114776;-57
2021/04/09 06:10:59;;;;;;;;;;;;;;;22.19;34.29;101136.03;2198130;39;114862;-57
2021/04/09 06:12:30;;;;;;;;;;;;;;;22.21;34.28;101139.38;2197001;39;114931;-56
2021/04/09 06:14:01;;;;;;;;;;;;;;;22.24;34.20;101133.09;2196349;39;114697;-57
2021/04/09 06:15:33;;;;;;;;;;;;;;;22.26;34.21;101130.00;2196359;39;115255;-57
2021/04/09 06:17:05;;;;;;;;;;;;;;;22.28;34.22;101130.50;2195799;39;115268;-57
2021/04/09 06:18:36;;;;;;;;;;;;;;;22.30;34.18;101129.03;2195618;39;115401;-56
2021/04/09 06:20:08;;;;;;;;;;;;;;;22.33;33.70;101139.66;2198269;39;114266;-57
2021/04/09 06:21:39;;;;;;;;;;;;;;;22.35;33.83;101128.91;2197959;39;114911;-57
2021/04/09 06:23:10;;;;;;;;;;;;;;;22.36;33.77;101129.75;2204511;39;116883;-57
2021/04/09 06:24:41;;;;;;;;;;;;;;;22.38;33.95;101130.28;2200779;39;115775;-57
2021/04/09 06:26:13;;;;;;;;;;;;;;;22.41;34.19;101135.25;2204388;39;115680;-57
2021/04/09 06:27:44;;;;;;;;;;;;;;;22.43;34.05;101132.97;2197703;39;115585;-56
2021/04/09 06:29:15;;;;;;;;;;;;;;;22.44;34.05;101132.63;2198090;39;115995;-56
2021/04/09 06:30:46;;;;;;;;;;;;;;;22.44;34.05;101134.66;2199029;39;116105;-56
2021/04/09 06:32:17;;;;;;;;;;;;;;;22.45;34.00;101134.31;2198414;39;115977;-57
2021/04/09 06:33:49;;;;;;;;;;;;;;;22.47;33.80;101131.19;2204311;39;116041;-57
2021/04/09 06:35:21;;;;;;;;;;;;;;;22.47;33.85;101132.03;2191764;39;115293;-57
2021/04/09 06:36:52;;;;;;;;;;;;;;;22.47;33.89;101129.19;2197317;39;115648;-56
2021/04/09 06:38:23;;;;;;;;;;;;;;;22.48;33.87;101124.41;2197969;39;115473;-56
2021/04/09 06:39:54;;;;;;;;;;;;;;;22.47;33.82;101115.13;2197701;39;115873;-57
2021/04/09 06:41:25;;;;;;;;;;;;;;;22.50;33.98;101122.09;2201997;39;114971;-56
2021/04/09 06:42:57;;;;;;;;;;;;;;;22.49;34.02;101124.06;2200933;39;115556;-57
2021/04/09 06:44:29;;;;;;;;;;;;;;;22.48;33.72;101133.69;2197768;39;115267;-57
2021/04/09 06:46:01;;;;;;;;;;;;;;;22.48;33.80;101124.41;2200607;39;115609;-57
2021/04/09 06:47:33;;;;;;;;;;;;;;;22.46;33.65;101133.16;2199364;39;113838;-57
2021/04/09 06:49:04;;;;;;;;;;;;;;;22.45;33.71;101125.84;2204499;39;113778;-56
2021/04/09 06:50:35;;;;;;;;;;;;;;;22.45;33.58;101120.22;2195150;39;113977;-57
2021/04/09 06:52:09;;;;;;;;;;;;;;;22.45;33.76;101122.22;2195453;39;114239;-57
2021/04/09 06:53:44;;;;;;;;;;;;;;;22.45;34.03;101122.22;2196066;39;114071;-57
2021/04/09 06:55:19;;;;;;;;;;;;;;;22.43;33.89;101128.16;2202629;39;114189;-56
2021/04/09 06:56:51;;;;;;;;;;;;;;;22.42;34.01;101120.03;2197284;39;114167;-57
2021/04/09 06:58:23;;;;;;;;;;;;;;;22.42;33.84;101123.69;2199141;39;113923;-56
2021/04/09 06:59:57;;;;;;;;;;;;;;;22.40;33.92;101125.13;2204331;39;113635;-57
2021/04/09 07:01:28;;;;;;;;;;;;;;;22.39;33.69;101124.34;2197472;39;113693;-57
2021/04/09 07:02:59;;;;;;;;;;;;;;;22.37;33.97;101120.97;2197192;39;113743;-57
2021/04/09 07:04:32;;;;;;;;;;;;;;;22.37;33.71;101122.97;2196704;39;114343;-57
2021/04/09 07:06:04;;;;;;;;;;;;;;;22.35;33.77;101123.28;2197083;39;113998;-57
2021/04/09 07:07:35;;;;;;;;;;;;;;;22.34;33.75;101127.25;2199789;39;113795;-57
2021/04/09 07:09:07;;;;;;;;;;;;;;;22.33;33.89;101130.38;2196130;39;114824;-56
2021/04/09 07:10:38;;;;;;;;;;;;;;;22.32;33.87;101121.09;2195536;39;114350;-57
2021/04/09 07:12:19;;;;;;;;;;;;;;;22.30;34.01;101123.41;2203931;39;114766;-57
2021/04/09 07:13:51;;;;;;;;;;;;;;;22.28;33.96;101128.50;2198067;39;114169;-56
2021/04/09 07:15:22;;;;;;;;;;;;;;;22.29;34.02;101129.34;2197116;39;114916;-56
2021/04/09 07:17:04;;;;;;;;;;;;;;;22.26;33.63;101124.38;2197543;39;114799;-56
2021/04/09 07:18:45;;;;;;;;;;;;;;;22.24;33.69;101124.66;2195450;39;114951;-56
2021/04/09 07:20:18;;;;;;;;;;;;;;;22.22;33.71;101124.13;2201918;39;115045;-57
2021/04/09 07:21:59;;;;;;;;;;;;;;;22.21;33.90;101128.13;2204583;39;115395;-57
2021/04/09 07:23:30;;;;;;;;;;;;;;;22.18;33.90;101123.94;2198297;39;114918;-56
2021/04/09 07:25:03;;;;;;;;;;;;;;;22.18;33.95;101121.13;2200061;39;115437;-56
2021/04/09 07:26:38;;;;;;;;;;;;;;;22.17;34.31;101122.25;2197358;39;114807;-57
2021/04/09 07:28:17;;;;;;;;;;;;;;;22.16;34.35;101122.59;2200934;39;115123;-56
2021/04/09 07:29:48;;;;;;;;;;;;;;;22.14;34.24;101127.69;2202965;39;114870;-56
2021/04/09 07:31:26;;;;;;;;;;;;;;;22.14;34.57;101116.44;2198084;39;115606;-56
2021/04/09 07:33:01;;;;;;;;;;;;;;;22.12;34.45;101116.75;2205518;39;115665;-57
2021/04/09 07:34:48;;;;;;;;;;;;;;;22.09;34.32;101122.19;2201532;39;115588;-56
2021/04/09 07:36:20;;;;;;;;;;;;;;;22.07;33.84;101116.06;2196508;39;115544;-57
2021/04/09 07:37:56;;;;;;;;;;;;;;;22.02;33.49;101119.81;2201430;39;114562;-58
2021/04/09 07:39:35;;;;;;;;;;;;;;;22.03;33.50;101115.81;2197339;39;115639;-56
2021/04/09 07:41:08;;;;;;;;;;;;;;;22.05;33.68;101119.16;2201579;39;114620;-57
2021/04/09 07:42:39;;;;;;;;;;;;;;;22.06;34.14;101120.00;2203865;39;114379;-57
2021/04/09 07:44:13;;;;;;;;;;;;;;;22.06;33.80;101117.19;2196910;39;115486;-57
2021/04/09 07:45:44;;;;;;;;;;;;;;;22.00;33.66;101110.84;2203219;39;115725;-57
2021/04/09 07:47:16;;;;;;;;;;;;;;;21.99;33.61;101114.78;2202528;39;115650;-55